createdAt,value
2023-05-03T00:00:07.615Z,99.90
2023-05-03T00:02:43.990Z,99.90
2023-05-03T00:05:16.986Z,99.90
2023-05-03T00:07:44.656Z,99.90
2023-05-03T00:10:12.446Z,99.90
2023-05-03T00:12:42.429Z,99.90
2023-05-03T00:15:11.061Z,99.90
2023-05-03T00:17:38.697Z,99.90
2023-05-03T00:20:06.488Z,99.90
2023-05-03T00:22:33.640Z,99.90
2023-05-03T00:25:01.548Z,99.90
2023-05-03T00:27:30.860Z,99.90
2023-05-03T00:29:58.365Z,99.90
2023-05-03T00:32:28.643Z,99.90
2023-05-03T00:34:56.453Z,99.90
2023-05-03T00:37:24.070Z,99.90
2023-05-03T00:54:56.937Z,99.90
2023-05-03T00:57:26.729Z,99.90
2023-05-03T00:59:53.567Z,99.90
2023-05-03T01:02:26.046Z,99.90
2023-05-03T01:04:54.392Z,99.90
2023-05-03T01:07:40.930Z,99.90
2023-05-03T01:10:34.482Z,99.90
2023-05-03T01:13:32.494Z,99.90
2023-05-03T01:16:06.380Z,99.90
2023-05-03T01:25:14.443Z,99.90
2023-05-03T01:27:45.393Z,99.90
2023-05-03T01:30:16.624Z,99.90
2023-05-03T01:33:07.817Z,99.90
2023-05-03T01:35:53.156Z,99.90
2023-05-03T01:38:23.899Z,99.90
2023-05-03T01:40:56.427Z,99.90
2023-05-03T01:43:24.277Z,99.90
2023-05-03T01:45:51.633Z,99.90
2023-05-03T01:48:24.784Z,99.90
2023-05-03T01:50:52.397Z,99.90
2023-05-03T01:53:22.784Z,99.90
2023-05-03T01:55:50.572Z,99.90
2023-05-03T01:58:19.691Z,99.90
2023-05-03T02:01:16.821Z,99.90
2023-05-03T02:03:45.644Z,99.90
2023-05-03T02:06:12.303Z,99.90
2023-05-03T02:08:42.809Z,99.90
2023-05-03T02:11:14.729Z,99.90
2023-05-03T02:13:43.948Z,99.90
2023-05-03T02:16:10.664Z,99.90
2023-05-03T02:18:41.096Z,99.90
2023-05-03T02:21:12.476Z,99.90
2023-05-03T02:23:39.733Z,99.90
2023-05-03T02:26:07.738Z,99.90
2023-05-03T02:28:41.785Z,99.90
2023-05-03T02:31:09.806Z,99.90
2023-05-03T02:33:39.363Z,99.90
2023-05-03T02:36:09.797Z,99.90
2023-05-03T02:38:36.468Z,99.90
2023-05-03T02:41:03.195Z,99.90
2023-05-03T02:43:32.098Z,99.90
2023-05-03T02:45:58.921Z,99.90
2023-05-03T02:48:29.492Z,99.90
2023-05-03T02:50:56.570Z,99.90
2023-05-03T02:53:25.376Z,99.90
2023-05-03T02:58:54.842Z,99.90
2023-05-03T03:01:23.633Z,99.90
2023-05-03T03:03:50.722Z,99.90
2023-05-03T03:06:19.015Z,99.90
2023-05-03T03:08:45.796Z,99.90
2023-05-03T03:11:16.140Z,99.90
2023-05-03T03:13:43.307Z,99.90
2023-05-03T03:16:10.979Z,99.90
2023-05-03T03:18:37.661Z,99.90
2023-05-03T03:21:04.685Z,99.90
2023-05-03T03:23:35.111Z,99.90
2023-05-03T03:26:03.871Z,99.90
2023-05-03T03:28:31.540Z,99.90
2023-05-03T03:31:00.948Z,99.90
2023-05-03T03:33:27.782Z,99.90
2023-05-03T03:36:01.995Z,99.90
2023-05-03T03:38:37.813Z,99.90
2023-05-03T03:41:13.331Z,99.90
2023-05-03T03:43:40.505Z,99.90
2023-05-03T03:46:12.926Z,99.90
2023-05-03T03:48:39.969Z,99.90
2023-05-03T03:51:10.821Z,99.90
2023-05-03T03:53:44.376Z,99.90
2023-05-03T03:56:14.816Z,99.90
2023-05-03T03:58:42.334Z,99.90
2023-05-03T04:01:12.567Z,99.90
2023-05-03T04:03:43.587Z,99.90
2023-05-03T04:06:12.766Z,99.90
2023-05-03T04:08:45.070Z,99.90
2023-05-03T04:11:13.544Z,99.90
2023-05-03T04:13:47.043Z,99.90
2023-05-03T04:16:18.161Z,99.90
2023-05-03T04:18:46.732Z,99.90
2023-05-03T04:21:13.901Z,99.90
2023-05-03T04:26:42.792Z,99.90
2023-05-03T04:29:19.253Z,99.90
2023-05-03T04:31:46.961Z,99.90
2023-05-03T04:34:16.155Z,99.90
2023-05-03T04:36:46.558Z,99.90
2023-05-03T04:39:16.688Z,99.90
2023-05-03T04:41:46.059Z,99.90
2023-05-03T04:44:18.137Z,99.90
2023-05-03T04:46:49.496Z,99.90
2023-05-03T04:52:16.114Z,99.90
2023-05-03T04:54:44.833Z,99.90
2023-05-03T04:57:13.909Z,99.90
2023-05-03T04:59:45.399Z,99.90
2023-05-03T05:02:16.109Z,99.90
2023-05-03T05:04:42.879Z,99.90
2023-05-03T05:07:12.445Z,99.90
2023-05-03T05:09:39.862Z,99.90
2023-05-03T05:12:07.036Z,99.90
2023-05-03T05:14:44.230Z,99.90
2023-05-03T05:17:11.032Z,99.90
2023-05-03T05:19:38.028Z,99.90
2023-05-03T05:22:05.057Z,99.90
2023-05-03T05:24:41.327Z,99.90
2023-05-03T05:27:11.505Z,99.90
2023-05-03T05:29:40.271Z,99.90
2023-05-03T05:32:07.164Z,99.90
2023-05-03T05:34:45.115Z,99.90
2023-05-03T05:37:17.043Z,99.90
2023-05-03T05:39:46.644Z,99.90
2023-05-03T05:42:15.775Z,99.90
2023-05-03T05:45:09.793Z,99.90
2023-05-03T05:47:38.098Z,99.90
2023-05-03T05:50:16.951Z,99.90
2023-05-03T05:52:53.339Z,99.90
2023-05-03T05:55:26.991Z,99.90
2023-05-03T05:57:55.501Z,99.90
2023-05-03T06:00:26.508Z,99.90
2023-05-03T06:02:59.558Z,99.90
2023-05-03T06:05:27.702Z,99.90
2023-05-03T06:07:54.400Z,99.90
2023-05-03T06:10:21.212Z,99.90
2023-05-03T06:12:55.783Z,99.90
2023-05-03T06:15:26.779Z,99.90
2023-05-03T06:17:53.770Z,99.90
2023-05-03T06:20:23.393Z,99.90
2023-05-03T06:22:51.703Z,99.90
2023-05-03T06:25:18.472Z,99.90
2023-05-03T06:27:49.939Z,99.90
2023-05-03T06:30:25.200Z,99.90
2023-05-03T06:32:54.741Z,99.90
2023-05-03T06:35:21.530Z,99.90
2023-05-03T06:37:48.804Z,99.90
2023-05-03T06:40:15.806Z,99.90
2023-05-03T06:42:45.646Z,99.90
2023-05-03T06:45:18.909Z,99.90
2023-05-03T06:47:46.759Z,99.90
2023-05-03T06:50:13.622Z,99.90
2023-05-03T06:52:44.228Z,99.90
2023-05-03T06:55:12.886Z,99.90
2023-05-03T06:57:41.907Z,99.90
2023-05-03T07:00:10.486Z,99.90
2023-05-03T07:02:38.875Z,99.90
2023-05-03T07:05:06.733Z,99.90
2023-05-03T07:07:40.336Z,99.90
2023-05-03T07:10:07.543Z,99.90
2023-05-03T07:12:36.794Z,99.90
2023-05-03T07:15:06.349Z,99.90
2023-05-03T07:17:35.847Z,99.90
2023-05-03T07:20:04.813Z,99.90
2023-05-03T07:22:33.986Z,99.90
2023-05-03T07:25:04.133Z,99.90
2023-05-03T07:27:33.168Z,99.90
2023-05-03T07:30:04.317Z,99.90
2023-05-03T07:32:31.939Z,99.90
2023-05-03T07:34:58.857Z,99.90
2023-05-03T07:37:27.389Z,99.90
2023-05-03T07:39:54.225Z,99.90
2023-05-03T07:42:25.005Z,99.90
2023-05-03T07:44:54.058Z,99.90
2023-05-03T07:47:23.843Z,99.90
2023-05-03T07:49:53.025Z,99.90
2023-05-03T07:52:20.167Z,99.90
2023-05-03T07:54:50.736Z,99.90
2023-05-03T07:57:19.460Z,99.90
2023-05-03T07:59:47.412Z,99.90
2023-05-03T08:02:19.118Z,99.90
2023-05-03T08:04:45.959Z,99.90
2023-05-03T08:07:13.238Z,99.90
2023-05-03T08:09:40.854Z,99.90
2023-05-03T08:12:10.059Z,99.90
2023-05-03T08:14:36.977Z,99.90
2023-05-03T08:17:07.190Z,99.90
2023-05-03T08:19:36.243Z,99.90
2023-05-03T08:22:11.717Z,99.90
2023-05-03T08:24:38.838Z,99.90
2023-05-03T08:27:07.259Z,99.90
2023-05-03T08:29:37.476Z,99.90
2023-05-03T08:32:06.789Z,99.90
2023-05-03T08:34:33.641Z,99.90
2023-05-03T08:37:03.592Z,99.90
2023-05-03T08:39:30.976Z,99.90
2023-05-03T08:41:57.980Z,99.90
2023-05-03T08:44:28.532Z,99.90
2023-05-03T08:46:58.597Z,99.90
2023-05-03T08:49:30.385Z,99.90
2023-05-03T08:51:58.042Z,99.90
2023-05-03T08:54:28.463Z,99.90
2023-05-03T08:56:55.219Z,99.90
2023-05-03T08:59:26.687Z,99.90
2023-05-03T09:01:55.630Z,99.90
2023-05-03T09:04:34.100Z,99.90
2023-05-03T09:07:09.728Z,99.90
2023-05-03T09:09:36.977Z,99.90
2023-05-03T09:12:04.483Z,99.90
2023-05-03T09:14:46.944Z,99.90
2023-05-03T09:17:15.937Z,99.90
2023-05-03T09:19:53.745Z,99.90
2023-05-03T09:22:25.738Z,99.90
2023-05-03T09:24:53.164Z,99.90
2023-05-03T09:27:23.352Z,99.90
2023-05-03T09:29:50.599Z,99.90
2023-05-03T09:32:17.608Z,99.90
2023-05-03T09:35:10.119Z,99.90
2023-05-03T09:37:37.854Z,99.90
2023-05-03T09:40:07.290Z,99.90
2023-05-03T09:42:37.352Z,99.90
2023-05-03T09:45:07.740Z,99.90
2023-05-03T09:47:51.168Z,99.90
2023-05-03T09:50:18.059Z,99.90
2023-05-03T09:52:46.088Z,99.90
2023-05-03T09:55:18.934Z,99.90
2023-05-03T09:57:50.171Z,99.90
2023-05-03T10:00:19.843Z,99.90
2023-05-03T10:02:49.841Z,99.90
2023-05-03T10:05:20.356Z,99.90
2023-05-03T10:07:52.761Z,99.90
2023-05-03T10:10:20.766Z,99.90
2023-05-03T10:12:48.588Z,99.90
2023-05-03T10:15:22.397Z,99.90
2023-05-03T10:17:53.075Z,99.90
2023-05-03T10:20:47.786Z,99.90
2023-05-03T10:23:40.413Z,99.90
2023-05-03T10:26:13.638Z,99.90
2023-05-03T10:28:43.227Z,99.90
2023-05-03T10:31:44.651Z,99.90
2023-05-03T10:34:22.043Z,99.90
2023-05-03T10:36:55.459Z,99.90
2023-05-03T10:39:27.955Z,99.90
2023-05-03T10:42:02.629Z,99.90
2023-05-03T10:44:48.331Z,99.90
2023-05-03T10:47:16.560Z,99.90
2023-05-03T10:49:45.578Z,99.90
2023-05-03T10:52:37.610Z,99.90
2023-05-03T10:55:10.544Z,99.90
2023-05-03T10:57:47.471Z,99.90
2023-05-03T11:00:23.598Z,99.90
2023-05-03T11:03:23.538Z,99.10
2023-05-03T11:05:53.659Z,98.40
2023-05-03T11:08:50.078Z,99.30
2023-05-03T11:11:16.833Z,99.10
2023-05-03T11:13:43.832Z,98.70
2023-05-03T11:16:12.026Z,98.10
2023-05-03T11:18:38.706Z,99.90
2023-05-03T11:21:06.643Z,99.00
2023-05-03T11:23:41.469Z,99.20
2023-05-03T11:26:12.534Z,97.50
2023-05-03T11:28:43.108Z,96.80
2023-05-03T11:31:16.565Z,96.50
2023-05-03T11:33:50.382Z,96.50
2023-05-03T11:36:20.921Z,96.00
2023-05-03T11:38:49.788Z,95.20
2023-05-03T11:41:18.759Z,96.90
2023-05-03T11:43:54.947Z,96.90
2023-05-03T11:46:30.860Z,96.80
2023-05-03T11:49:02.314Z,94.90
2023-05-03T11:51:30.782Z,94.30
2023-05-03T11:54:12.967Z,95.50
2023-05-03T11:56:58.346Z,94.50
2023-05-03T11:59:54.984Z,92.70
2023-05-03T12:02:21.962Z,91.20
2023-05-03T12:04:56.505Z,91.20
2023-05-03T12:07:27.016Z,91.50
2023-05-03T12:10:09.435Z,90.80
2023-05-03T12:12:43.995Z,90.70
2023-05-03T12:15:27.565Z,89.90
2023-05-03T12:18:00.791Z,90.30
2023-05-03T12:23:09.175Z,90.50
2023-05-03T12:25:44.413Z,90.90
2023-05-03T12:28:19.470Z,90.50
2023-05-03T12:30:47.927Z,86.60
2023-05-03T12:33:16.032Z,87.50
2023-05-03T12:35:47.720Z,87.50
2023-05-03T12:38:17.964Z,83.70
2023-05-03T12:40:47.759Z,87.10
2023-05-03T12:43:17.131Z,87.50
2023-05-03T12:45:49.335Z,89.20
2023-05-03T12:48:26.857Z,89.30
2023-05-03T12:51:17.560Z,87.30
2023-05-03T12:53:54.532Z,90.30
2023-05-03T12:56:24.765Z,85.00
2023-05-03T12:59:20.418Z,83.20
2023-05-03T13:04:42.616Z,82.40
2023-05-03T13:07:13.423Z,82.40
2023-05-03T13:12:21.659Z,82.00
2023-05-03T13:14:50.077Z,82.50
2023-05-03T13:20:15.040Z,79.40
2023-05-03T13:22:44.901Z,78.80
2023-05-03T13:25:14.307Z,81.80
2023-05-03T13:27:41.271Z,81.90
2023-05-03T13:30:10.668Z,81.30
2023-05-03T13:32:40.501Z,82.10
2023-05-03T13:35:09.686Z,80.50
2023-05-03T13:37:36.327Z,78.90
2023-05-03T13:40:05.024Z,77.10
2023-05-03T13:42:33.056Z,76.90
2023-05-03T13:45:02.777Z,77.20
2023-05-03T13:47:41.942Z,76.30
2023-05-03T13:50:17.273Z,77.50
2023-05-03T13:52:47.854Z,74.00
2023-05-03T13:55:17.796Z,75.70
2023-05-03T13:57:50.147Z,75.10
2023-05-03T14:00:17.627Z,74.80
2023-05-03T14:02:46.427Z,73.60
2023-05-03T14:05:15.859Z,74.30
2023-05-03T14:07:42.566Z,74.10
2023-05-03T14:10:10.522Z,72.50
2023-05-03T14:12:37.637Z,71.60
2023-05-03T14:15:06.923Z,75.00
2023-05-03T14:17:34.141Z,70.80
2023-05-03T14:20:00.840Z,72.00
2023-05-03T14:22:29.701Z,71.80
2023-05-03T14:24:58.737Z,73.10
2023-05-03T14:27:27.691Z,73.40
2023-05-03T14:29:56.365Z,74.80
2023-05-03T14:32:26.332Z,73.40
2023-05-03T14:34:56.407Z,71.00
2023-05-03T14:37:25.969Z,71.80
2023-05-03T14:39:55.215Z,74.40
2023-05-03T14:42:24.554Z,70.30
2023-05-03T14:44:51.324Z,71.90
2023-05-03T14:47:20.256Z,70.10
2023-05-03T14:49:46.862Z,71.50
2023-05-03T14:52:15.529Z,72.60
2023-05-03T14:54:42.302Z,72.60
2023-05-03T14:57:09.272Z,70.20
2023-05-03T14:59:36.050Z,69.10
2023-05-03T15:02:03.969Z,70.30
2023-05-03T15:04:31.885Z,72.90
2023-05-03T15:07:06.588Z,70.70
2023-05-03T15:09:58.956Z,70.80
2023-05-03T15:12:29.581Z,72.20
2023-05-03T15:14:57.560Z,72.30
2023-05-03T15:17:26.560Z,72.10
2023-05-03T15:19:53.921Z,74.60
2023-05-03T15:22:21.081Z,71.90
2023-05-03T15:24:50.210Z,74.20
2023-05-03T15:27:17.149Z,74.10
2023-05-03T15:29:45.476Z,73.60
2023-05-03T15:32:12.169Z,74.70
2023-05-03T15:34:40.443Z,74.50
2023-05-03T15:37:11.429Z,76.20
2023-05-03T15:39:41.763Z,76.50
2023-05-03T15:42:08.423Z,74.90
2023-05-03T15:44:35.277Z,74.50
2023-05-03T15:47:04.845Z,75.00
2023-05-03T15:49:31.555Z,76.10
2023-05-03T15:52:00.764Z,75.10
2023-05-03T15:54:58.767Z,76.00
2023-05-03T15:57:30.121Z,77.10
2023-05-03T16:00:01.482Z,77.20
2023-05-03T16:02:28.716Z,78.00
2023-05-03T16:05:01.493Z,78.90
2023-05-03T16:07:29.315Z,79.90
2023-05-03T16:10:24.211Z,77.90
2023-05-03T16:12:59.713Z,78.00
2023-05-03T16:15:30.417Z,79.50
2023-05-03T16:18:00.955Z,78.90
2023-05-03T16:20:31.302Z,78.90
2023-05-03T16:22:59.036Z,78.80
2023-05-03T16:25:32.551Z,79.70
2023-05-03T16:27:59.413Z,80.60
2023-05-03T16:30:36.070Z,80.50
2023-05-03T16:33:03.884Z,78.80
2023-05-03T16:35:31.107Z,78.40
2023-05-03T16:38:00.157Z,79.20
2023-05-03T16:40:29.228Z,80.70
2023-05-03T16:42:57.408Z,81.20
2023-05-03T16:45:26.293Z,82.40
2023-05-03T16:47:53.076Z,81.60
2023-05-03T16:50:26.166Z,81.00
2023-05-03T16:52:58.718Z,79.20
2023-05-03T16:55:26.527Z,80.80
2023-05-03T16:57:53.265Z,81.00
2023-05-03T17:00:26.322Z,80.90
2023-05-03T17:02:55.966Z,81.40
2023-05-03T17:05:33.299Z,81.90
2023-05-03T17:08:03.498Z,83.20
2023-05-03T17:10:30.925Z,82.20
2023-05-03T17:13:00.453Z,82.70
2023-05-03T17:15:27.473Z,82.70
2023-05-03T17:17:57.276Z,82.40
2023-05-03T17:20:30.224Z,83.40
2023-05-03T17:22:58.779Z,83.10
2023-05-03T17:25:27.121Z,83.60
2023-05-03T17:27:53.968Z,83.70
2023-05-03T17:30:23.902Z,83.80
2023-05-03T17:32:53.706Z,83.50
2023-05-03T17:38:17.104Z,84.00
2023-05-03T17:40:50.313Z,84.80
2023-05-03T17:43:20.783Z,83.30
2023-05-03T17:45:52.023Z,84.00
2023-05-03T17:48:19.613Z,84.20
2023-05-03T17:50:58.276Z,84.90
2023-05-03T17:53:25.858Z,84.50
2023-05-03T17:55:54.809Z,84.80
2023-05-03T17:58:21.655Z,85.90
2023-05-03T18:00:48.403Z,85.30
2023-05-03T18:03:18.513Z,86.10
2023-05-03T18:11:27.495Z,86.00
2023-05-03T18:13:54.241Z,86.70
2023-05-03T18:16:24.780Z,86.20
2023-05-03T18:18:53.756Z,86.90
2023-05-03T18:21:22.754Z,87.50
2023-05-03T18:23:49.792Z,86.80
2023-05-03T18:26:16.761Z,87.70
2023-05-03T18:28:51.741Z,87.80
2023-05-03T18:31:20.902Z,88.30
2023-05-03T18:33:48.182Z,88.30
2023-05-03T18:36:17.150Z,88.50
2023-05-03T18:38:46.430Z,88.40
2023-05-03T18:41:16.060Z,89.10
2023-05-03T18:43:43.919Z,89.80
2023-05-03T18:46:11.129Z,89.80
2023-05-03T18:48:39.892Z,90.00
2023-05-03T18:51:07.234Z,89.90
2023-05-03T18:53:35.284Z,90.60
2023-05-03T18:56:04.347Z,90.70
2023-05-03T18:58:33.132Z,90.60
2023-05-03T19:01:03.830Z,91.10
2023-05-03T19:03:35.398Z,91.00
2023-05-03T19:06:06.821Z,90.80
2023-05-03T19:08:37.483Z,91.50
2023-05-03T19:11:17.534Z,91.40
2023-05-03T19:16:40.418Z,91.80
2023-05-03T19:19:07.754Z,91.80
2023-05-03T19:21:37.009Z,91.70
2023-05-03T19:24:10.958Z,92.00
2023-05-03T19:26:37.901Z,92.30
2023-05-03T19:29:05.092Z,92.30
2023-05-03T19:31:37.607Z,92.30
2023-05-03T19:34:04.928Z,92.50
2023-05-03T19:36:57.492Z,92.70
2023-05-03T19:39:24.528Z,92.80
2023-05-03T19:42:01.330Z,92.90
2023-05-03T19:44:31.196Z,92.80
2023-05-03T19:50:01.735Z,93.40
2023-05-03T19:52:30.788Z,93.30
2023-05-03T19:54:57.875Z,93.70
2023-05-03T20:09:08.538Z,96.00
2023-05-03T20:11:35.185Z,96.50
2023-05-03T20:14:02.991Z,97.00
2023-05-03T20:16:40.981Z,97.30
2023-05-03T20:23:24.135Z,98.30
2023-05-03T20:25:50.681Z,98.90
2023-05-03T20:28:19.580Z,99.20
2023-05-03T20:30:48.672Z,99.20
2023-05-03T20:33:16.316Z,99.40
2023-05-03T20:35:43.693Z,99.90
2023-05-03T20:38:13.217Z,99.90
2023-05-03T20:40:40.005Z,99.90
2023-05-03T20:43:06.683Z,99.90
2023-05-03T20:45:34.469Z,99.90
2023-05-03T20:48:03.683Z,99.90
2023-05-03T20:50:32.884Z,99.90
2023-05-03T20:52:59.720Z,99.90
2023-05-03T20:55:29.722Z,99.90
2023-05-03T20:58:00.648Z,99.90
2023-05-03T21:00:31.679Z,99.90
2023-05-03T21:02:58.361Z,99.90
2023-05-03T21:05:25.227Z,99.90
2023-05-03T21:07:52.183Z,99.90
2023-05-03T21:10:21.449Z,99.90
2023-05-03T21:12:48.148Z,99.90
2023-05-03T21:15:18.603Z,99.90
2023-05-03T21:17:45.555Z,99.90
2023-05-03T21:20:12.787Z,99.90
2023-05-03T21:22:40.282Z,99.90
2023-05-03T21:34:19.640Z,99.90
2023-05-03T21:36:46.437Z,99.90
2023-05-03T21:39:13.207Z,99.90
2023-05-03T21:41:45.551Z,99.90
2023-05-03T21:44:12.626Z,99.90
2023-05-03T21:46:42.852Z,99.90
2023-05-03T21:49:15.149Z,99.90
2023-05-03T21:51:42.532Z,99.90
2023-05-03T21:54:09.232Z,99.90
2023-05-03T21:56:39.867Z,99.90
2023-05-03T21:59:07.624Z,99.90
2023-05-03T22:01:37.356Z,99.90
2023-05-03T22:04:04.789Z,99.90
2023-05-03T22:06:37.169Z,99.90
2023-05-03T22:09:10.746Z,99.90
2023-05-03T22:11:37.463Z,99.90
2023-05-03T22:14:08.313Z,99.90
2023-05-03T22:16:41.270Z,99.90
2023-05-03T22:19:11.244Z,99.90
2023-05-03T22:21:40.209Z,99.90
2023-05-03T22:24:07.596Z,99.90
2023-05-03T22:26:36.538Z,99.90
2023-05-03T22:29:09.185Z,99.90
2023-05-03T22:31:39.864Z,99.90
2023-05-03T22:34:09.671Z,99.90
2023-05-03T22:36:37.439Z,99.90
2023-05-03T22:39:05.022Z,99.90
2023-05-03T22:41:34.474Z,99.90
2023-05-03T22:44:06.756Z,99.90
2023-05-03T22:46:34.648Z,99.90
2023-05-03T22:49:10.610Z,99.90
2023-05-03T22:51:39.881Z,99.90
2023-05-03T22:54:06.607Z,99.90
2023-05-03T22:56:35.460Z,99.90
2023-05-03T22:59:03.384Z,99.90
2023-05-03T23:01:30.260Z,99.90
2023-05-03T23:04:00.002Z,99.90
2023-05-03T23:06:26.844Z,99.90
2023-05-03T23:08:55.752Z,99.90
2023-05-03T23:11:22.408Z,99.90
2023-05-03T23:13:49.336Z,99.90
2023-05-03T23:16:19.531Z,99.90
2023-05-03T23:18:46.382Z,99.90
2023-05-03T23:21:18.772Z,99.90
2023-05-03T23:23:46.297Z,99.90
2023-05-03T23:26:16.759Z,99.90
2023-05-03T23:28:43.784Z,99.90
2023-05-03T23:31:10.738Z,99.90
2023-05-03T23:33:37.885Z,99.90
2023-05-03T23:36:04.917Z,99.90
2023-05-03T23:38:35.015Z,99.90
2023-05-03T23:41:04.028Z,99.90
2023-05-03T23:43:31.928Z,99.90
2023-05-03T23:45:59.321Z,99.90
2023-05-03T23:48:30.730Z,99.90
2023-05-03T23:50:58.836Z,99.90
2023-05-03T23:53:25.500Z,99.90
2023-05-03T23:55:56.866Z,99.90
2023-05-03T23:58:25.646Z,99.90
